createdAt,value
2018-08-22T00:01:26.919Z,23.04
2018-08-22T00:04:02.200Z,23.50
2018-08-22T00:06:31.905Z,23.44
2018-08-22T00:09:03.429Z,23.55
2018-08-22T00:11:36.143Z,23.31
2018-08-22T00:14:09.454Z,23.57
2018-08-22T00:16:42.334Z,23.79
2018-08-22T00:19:12.351Z,24.18
2018-08-22T00:21:45.133Z,24.21
2018-08-22T00:24:19.327Z,24.29
2018-08-22T00:26:50.310Z,24.32
2018-08-22T00:29:25.818Z,24.37
2018-08-22T00:31:59.867Z,24.42
2018-08-22T00:37:13.797Z,24.07
2018-08-22T00:39:44.856Z,23.57
2018-08-22T00:42:22.407Z,23.72
2018-08-22T00:44:54.632Z,22.21
2018-08-22T00:47:30.858Z,22.63
2018-08-22T00:50:07.227Z,22.19
2018-08-22T00:52:40.091Z,21.67
2018-08-22T00:55:16.472Z,21.43
2018-08-22T00:57:52.572Z,21.39
2018-08-22T01:00:26.410Z,20.99
2018-08-22T01:02:59.382Z,21.16
2018-08-22T01:05:37.407Z,21.66
2018-08-22T01:08:13.827Z,21.83
2018-08-22T01:10:51.200Z,22.57
2018-08-22T01:13:23.726Z,22.52
2018-08-22T01:16:01.832Z,21.83
2018-08-22T01:18:36.679Z,21.08
2018-08-22T01:21:13.831Z,21.95
2018-08-22T01:23:49.346Z,21.87
2018-08-22T01:26:27.058Z,21.65
2018-08-22T01:29:01.041Z,21.37
2018-08-22T01:31:34.238Z,21.41
2018-08-22T01:34:07.537Z,21.61
2018-08-22T01:36:42.412Z,21.30
2018-08-22T01:39:17.933Z,21.22
2018-08-22T01:41:51.250Z,21.33
2018-08-22T01:44:26.928Z,21.61
2018-08-22T01:46:57.188Z,21.95
2018-08-22T01:49:31.589Z,21.99
2018-08-22T01:52:02.883Z,22.57
2018-08-22T01:54:43.271Z,23.01
2018-08-22T01:57:17.212Z,23.20
2018-08-22T01:59:49.803Z,23.01
2018-08-22T02:02:24.423Z,22.25
2018-08-22T02:05:02.199Z,22.43
2018-08-22T02:07:33.062Z,22.08
2018-08-22T02:10:07.695Z,21.71
2018-08-22T02:12:51.462Z,21.46
2018-08-22T02:15:24.257Z,21.27
2018-08-22T02:17:59.985Z,21.21
2018-08-22T02:20:33.505Z,20.93
2018-08-22T02:23:05.903Z,20.92
2018-08-22T02:25:38.705Z,20.84
2018-08-22T02:28:17.350Z,21.07
2018-08-22T02:30:52.091Z,20.94
2018-08-22T02:33:34.131Z,21.04
2018-08-22T02:36:06.897Z,20.88
2018-08-22T02:38:42.111Z,21.01
2018-08-22T02:41:13.842Z,20.91
2018-08-22T02:43:46.717Z,20.78
2018-08-22T02:46:16.810Z,20.84
2018-08-22T02:48:51.633Z,20.96
2018-08-22T02:51:22.099Z,20.91
2018-08-22T02:53:55.503Z,21.09
2018-08-22T02:56:29.193Z,21.37
2018-08-22T02:59:00.422Z,21.18
2018-08-22T03:01:36.406Z,20.88
2018-08-22T03:04:09.493Z,21.00
2018-08-22T03:06:45.868Z,20.99
2018-08-22T03:09:21.938Z,20.92
2018-08-22T03:11:55.711Z,20.92
2018-08-22T03:14:31.958Z,21.13
2018-08-22T03:17:05.097Z,21.11
2018-08-22T03:19:37.783Z,21.03
2018-08-22T03:22:10.678Z,21.41
2018-08-22T03:24:45.014Z,21.17
2018-08-22T03:27:20.718Z,20.90
2018-08-22T03:29:56.814Z,20.68
2018-08-22T03:32:31.962Z,20.27
2018-08-22T03:35:03.127Z,20.03
2018-08-22T03:37:33.982Z,20.20
2018-08-22T03:40:05.761Z,20.41
2018-08-22T03:42:36.580Z,20.42
2018-08-22T03:45:10.047Z,20.09
2018-08-22T03:47:42.183Z,19.47
2018-08-22T03:50:12.444Z,19.44
2018-08-22T03:52:46.202Z,19.54
2018-08-22T03:55:23.888Z,19.55
2018-08-22T03:58:01.349Z,19.61
2018-08-22T04:00:35.731Z,19.42
2018-08-22T04:03:06.678Z,19.51
2018-08-22T04:05:44.934Z,19.94
2018-08-22T04:08:17.746Z,20.11
2018-08-22T04:11:01.264Z,20.42
2018-08-22T04:13:34.464Z,20.29
2018-08-22T04:16:09.173Z,20.63
2018-08-22T04:18:41.778Z,21.24
2018-08-22T04:21:15.632Z,21.16
2018-08-22T04:23:49.380Z,21.34
2018-08-22T04:26:25.386Z,21.66
2018-08-22T04:31:41.690Z,21.76
2018-08-22T04:34:23.267Z,21.98
2018-08-22T04:36:53.842Z,21.68
2018-08-22T04:39:26.587Z,22.09
2018-08-22T04:41:57.113Z,22.01
2018-08-22T04:44:32.692Z,22.72
2018-08-22T04:47:11.007Z,22.65
2018-08-22T04:49:46.050Z,22.73
2018-08-22T04:52:16.803Z,22.08
2018-08-22T04:54:49.001Z,22.64
2018-08-22T04:57:24.790Z,22.42
2018-08-22T05:00:04.746Z,22.52
2018-08-22T05:02:41.013Z,23.16
2018-08-22T05:05:12.763Z,22.98
2018-08-22T05:07:45.810Z,23.10
2018-08-22T05:10:18.581Z,22.64
2018-08-22T05:12:48.890Z,22.39
2018-08-22T05:15:24.988Z,23.04
2018-08-22T05:18:05.695Z,23.14
2018-08-22T05:20:39.031Z,23.68
2018-08-22T05:23:17.380Z,23.02
2018-08-22T05:25:51.851Z,23.10
2018-08-22T05:28:24.191Z,22.94
2018-08-22T05:30:56.408Z,23.22
2018-08-22T05:33:28.997Z,23.40
2018-08-22T05:36:02.671Z,23.96
2018-08-22T05:38:36.584Z,23.63
2018-08-22T05:41:08.161Z,23.76
2018-08-22T05:43:41.652Z,23.81
2018-08-22T05:46:17.702Z,23.67
2018-08-22T05:48:48.194Z,23.89
2018-08-22T05:51:21.370Z,24.45
2018-08-22T05:53:55.026Z,24.24
2018-08-22T05:57:31.094Z,25.04
2018-08-22T06:00:05.596Z,24.91
2018-08-22T06:02:37.856Z,25.09
2018-08-22T06:05:11.489Z,24.72
2018-08-22T06:07:44.970Z,24.95
2018-08-22T06:10:17.675Z,25.31
2018-08-22T06:12:53.545Z,25.56
2018-08-22T06:15:24.960Z,25.77
2018-08-22T06:17:58.267Z,25.69
2018-08-22T06:20:32.700Z,25.42
2018-08-22T06:23:04.071Z,25.54
2018-08-22T06:25:34.003Z,26.05
2018-08-22T06:28:08.137Z,26.14
2018-08-22T06:30:42.236Z,26.01
2018-08-22T06:33:15.163Z,26.06
2018-08-22T06:35:51.803Z,26.05
2018-08-22T06:38:25.681Z,26.19
2018-08-22T06:40:59.993Z,26.49
2018-08-22T06:43:34.156Z,26.60
2018-08-22T06:46:08.573Z,26.60
2018-08-22T06:48:47.364Z,26.53
2018-08-22T06:51:18.437Z,26.53
2018-08-22T06:53:56.686Z,26.64
2018-08-22T06:56:33.104Z,26.81
2018-08-22T06:59:09.462Z,27.00
2018-08-22T07:01:41.632Z,27.23
2018-08-22T07:04:13.282Z,27.62
2018-08-22T07:06:47.897Z,26.97
2018-08-22T07:09:19.048Z,27.64
2018-08-22T07:11:49.289Z,27.61
2018-08-22T07:14:20.343Z,27.72
2018-08-22T07:16:53.238Z,27.88
2018-08-22T07:19:27.881Z,27.92
2018-08-22T07:22:02.165Z,27.82
2018-08-22T07:24:33.035Z,27.87
2018-08-22T07:27:04.455Z,27.80
2018-08-22T07:29:38.050Z,27.87
2018-08-22T07:32:12.292Z,27.98
2018-08-22T07:34:50.623Z,27.84
2018-08-22T07:37:28.693Z,27.93
2018-08-22T07:40:01.389Z,27.78
2018-08-22T07:42:36.693Z,27.94
2018-08-22T07:45:07.176Z,28.11
2018-08-22T07:47:39.583Z,28.20
2018-08-22T07:50:11.104Z,28.27
2018-08-22T07:52:52.595Z,28.27
2018-08-22T07:55:32.198Z,28.30
2018-08-22T07:58:05.237Z,28.26
2018-08-22T08:00:42.100Z,28.52
2018-08-22T08:03:13.868Z,28.30
2018-08-22T08:05:47.942Z,28.65
2018-08-22T08:08:23.847Z,28.48
2018-08-22T08:10:58.336Z,28.51
2018-08-22T08:13:32.355Z,28.62
2018-08-22T08:16:07.426Z,28.79
2018-08-22T08:18:41.810Z,28.89
2018-08-22T08:21:13.190Z,28.91
2018-08-22T08:23:48.048Z,28.96
2018-08-22T08:26:19.708Z,29.09
2018-08-22T08:28:55.653Z,29.08
2018-08-22T08:31:28.091Z,29.23
2018-08-22T08:34:00.502Z,29.23
2018-08-22T08:36:30.941Z,29.36
2018-08-22T08:39:03.588Z,29.28
2018-08-22T08:41:37.794Z,29.24
2018-08-22T08:44:15.336Z,29.41
2018-08-22T08:46:47.869Z,29.29
2018-08-22T08:49:25.759Z,29.02
2018-08-22T08:52:05.540Z,29.14
2018-08-22T08:54:39.019Z,29.10
2018-08-22T08:57:11.363Z,29.21
2018-08-22T08:59:42.775Z,29.24
2018-08-22T09:02:16.780Z,29.14
2018-08-22T09:04:54.920Z,29.27
2018-08-22T09:07:30.117Z,29.15
2018-08-22T09:10:01.065Z,28.98
2018-08-22T09:12:36.035Z,28.95
2018-08-22T09:15:07.887Z,28.83
2018-08-22T09:17:37.347Z,28.74
2018-08-22T09:20:10.300Z,28.83
2018-08-22T09:22:48.200Z,28.87
2018-08-22T09:25:24.164Z,28.88
2018-08-22T09:27:56.491Z,28.77
2018-08-22T09:30:30.163Z,28.87
2018-08-22T09:33:03.566Z,28.95
2018-08-22T09:35:33.719Z,28.98
2018-08-22T09:38:06.406Z,28.86
2018-08-22T09:40:42.057Z,28.82
2018-08-22T09:43:13.699Z,28.73
2018-08-22T09:45:48.012Z,28.60
2018-08-22T09:48:21.479Z,28.68
2018-08-22T09:50:57.270Z,28.51
2018-08-22T09:53:30.716Z,28.66
2018-08-22T09:56:07.971Z,28.55
2018-08-22T09:58:39.109Z,28.75
2018-08-22T10:01:16.646Z,28.77
2018-08-22T10:03:58.875Z,28.76
2018-08-22T10:06:35.020Z,28.52
2018-08-22T10:09:14.889Z,28.57
2018-08-22T10:11:46.920Z,28.57
2018-08-22T10:14:20.429Z,28.65
2018-08-22T10:16:52.491Z,28.75
2018-08-22T10:19:30.477Z,28.70
2018-08-22T10:22:03.701Z,28.70
2018-08-22T10:24:35.678Z,28.82
2018-08-22T10:27:09.196Z,28.70
2018-08-22T10:29:42.984Z,28.83
2018-08-22T10:32:16.897Z,28.76
2018-08-22T10:34:49.499Z,28.89
2018-08-22T10:37:24.920Z,28.99
2018-08-22T10:39:57.633Z,28.93
2018-08-22T10:42:28.439Z,29.01
2018-08-22T10:45:04.795Z,29.25
2018-08-22T10:47:35.980Z,29.17
2018-08-22T10:50:12.037Z,29.28
2018-08-22T10:52:46.163Z,29.23
2018-08-22T10:55:21.767Z,28.46
2018-08-22T10:57:54.573Z,29.18
2018-08-22T11:00:24.565Z,29.23
2018-08-22T11:02:55.815Z,29.36
2018-08-22T11:05:27.358Z,29.49
2018-08-22T11:08:02.682Z,29.58
2018-08-22T11:10:34.596Z,29.55
2018-08-22T11:13:05.913Z,29.59
2018-08-22T11:15:39.498Z,29.49
2018-08-22T11:18:12.128Z,29.43
2018-08-22T11:20:49.011Z,29.35
2018-08-22T11:23:30.964Z,29.33
2018-08-22T11:26:14.608Z,29.20
2018-08-22T11:28:56.834Z,29.20
2018-08-22T11:31:39.239Z,29.22
2018-08-22T11:34:22.063Z,29.14
2018-08-22T11:37:19.892Z,29.26
2018-08-22T11:39:53.147Z,29.19
2018-08-22T11:42:29.583Z,29.12
2018-08-22T11:45:02.461Z,29.20
2018-08-22T11:47:35.648Z,29.15
2018-08-22T11:50:11.232Z,29.24
2018-08-22T11:52:41.883Z,29.01
2018-08-22T11:55:16.370Z,29.20
2018-08-22T11:57:50.716Z,29.17
2018-08-22T12:00:26.898Z,29.09
2018-08-22T12:03:02.912Z,28.97
2018-08-22T12:05:35.584Z,28.85
2018-08-22T12:08:11.229Z,28.92
2018-08-22T12:10:41.797Z,29.09
2018-08-22T12:13:21.665Z,29.22
2018-08-22T12:15:54.524Z,29.23
2018-08-22T12:18:28.999Z,29.18
2018-08-22T12:21:01.253Z,29.43
2018-08-22T12:23:36.089Z,28.89
2018-08-22T12:26:09.691Z,29.02
2018-08-22T12:28:40.335Z,28.97
2018-08-22T12:31:11.750Z,29.04
2018-08-22T12:33:45.462Z,28.52
2018-08-22T12:36:22.739Z,29.08
2018-08-22T12:38:59.540Z,29.31
2018-08-22T12:41:31.470Z,29.73
2018-08-22T12:44:05.256Z,30.64
2018-08-22T12:46:38.634Z,31.68
2018-08-22T12:49:14.286Z,32.53
2018-08-22T12:51:49.483Z,32.27
2018-08-22T12:54:30.767Z,31.69
2018-08-22T12:57:03.968Z,32.29
2018-08-22T12:59:35.759Z,32.83
2018-08-22T13:02:06.967Z,32.74
2018-08-22T13:04:41.095Z,33.09
2018-08-22T13:07:12.136Z,32.69
2018-08-22T13:09:51.057Z,32.78
2018-08-22T13:12:24.970Z,31.83
2018-08-22T13:14:56.918Z,32.98
2018-08-22T13:17:27.898Z,32.47
2018-08-22T13:20:02.136Z,32.25
2018-08-22T13:22:35.949Z,33.19
2018-08-22T13:25:09.875Z,32.56
2018-08-22T13:27:42.165Z,33.61
2018-08-22T13:30:14.993Z,34.00
2018-08-22T13:32:46.265Z,32.81
2018-08-22T13:35:16.400Z,32.52
2018-08-22T13:37:49.947Z,33.09
2018-08-22T13:40:20.671Z,33.07
2018-08-22T13:42:54.650Z,33.03
2018-08-22T13:45:26.276Z,33.56
2018-08-22T13:48:04.984Z,32.64
2018-08-22T13:50:43.069Z,33.27
2018-08-22T13:53:19.327Z,33.42
2018-08-22T13:55:50.072Z,32.94
2018-08-22T13:58:23.347Z,32.90
2018-08-22T14:00:56.967Z,32.82
2018-08-22T14:03:30.158Z,34.06
2018-08-22T14:06:12.151Z,33.07
2018-08-22T14:08:46.730Z,32.88
2018-08-22T14:11:18.677Z,32.30
2018-08-22T14:13:49.749Z,32.15
2018-08-22T14:16:23.405Z,32.75
2018-08-22T14:19:01.694Z,33.32
2018-08-22T14:21:34.402Z,33.49
2018-08-22T14:24:10.184Z,33.89
2018-08-22T14:26:42.591Z,33.62
2018-08-22T14:29:17.585Z,33.61
2018-08-22T14:31:48.761Z,33.31
2018-08-22T14:34:25.032Z,34.14
2018-08-22T14:36:57.865Z,34.94
2018-08-22T14:39:32.634Z,35.01
2018-08-22T14:42:04.080Z,34.57
2018-08-22T14:44:42.230Z,34.01
2018-08-22T14:47:12.914Z,35.43
2018-08-22T14:49:46.483Z,34.72
2018-08-22T14:52:21.100Z,33.81
2018-08-22T14:54:59.011Z,33.71
2018-08-22T14:57:30.344Z,33.66
2018-08-22T15:00:02.658Z,33.97
2018-08-22T15:02:40.311Z,33.66
2018-08-22T15:05:17.169Z,33.73
2018-08-22T15:07:50.399Z,33.58
2018-08-22T15:10:26.337Z,33.73
2018-08-22T15:12:57.308Z,33.06
2018-08-22T15:15:32.487Z,32.52
2018-08-22T15:18:08.864Z,32.76
2018-08-22T15:20:51.642Z,33.31
2018-08-22T15:23:23.718Z,33.38
2018-08-22T15:25:55.235Z,33.99
2018-08-22T15:28:28.536Z,33.84
2018-08-22T15:31:03.301Z,33.73
2018-08-22T15:33:46.937Z,33.64
2018-08-22T15:36:22.234Z,32.94
2018-08-22T15:38:56.628Z,32.75
2018-08-22T15:41:28.652Z,33.40
2018-08-22T15:44:00.706Z,33.21
2018-08-22T15:46:32.230Z,32.79
2018-08-22T15:49:09.313Z,32.72
2018-08-22T15:51:39.690Z,32.57
2018-08-22T15:54:17.788Z,33.17
2018-08-22T15:56:50.904Z,33.63
2018-08-22T15:59:26.915Z,33.38
2018-08-22T16:01:59.043Z,33.27
2018-08-22T16:04:34.948Z,32.82
2018-08-22T16:07:11.427Z,32.89
2018-08-22T16:09:46.646Z,32.33
2018-08-22T16:12:21.421Z,31.74
2018-08-22T16:14:55.367Z,32.02
2018-08-22T16:17:33.248Z,31.71
2018-08-22T16:20:07.365Z,31.49
2018-08-22T16:22:48.810Z,31.60
2018-08-22T16:25:24.218Z,31.46
2018-08-22T16:27:57.909Z,31.53
2018-08-22T16:30:36.126Z,31.24
2018-08-22T16:33:05.928Z,31.02
2018-08-22T16:35:38.547Z,30.81
2018-08-22T16:38:14.821Z,30.55
2018-08-22T16:40:55.081Z,30.29
2018-08-22T16:43:46.851Z,29.88
2018-08-22T16:53:11.749Z,28.41
2018-08-22T16:55:49.053Z,28.28
2018-08-22T16:58:22.063Z,27.89
2018-08-22T17:00:54.467Z,27.69
2018-08-22T17:03:25.761Z,27.71
2018-08-22T17:06:19.834Z,27.45
2018-08-22T17:08:52.310Z,27.27
2018-08-22T17:11:26.113Z,27.19
2018-08-22T17:13:59.962Z,27.12
2018-08-22T17:16:33.058Z,27.09
2018-08-22T17:19:08.266Z,27.05
2018-08-22T17:21:43.131Z,26.92
2018-08-22T17:24:15.142Z,26.89
2018-08-22T17:26:47.207Z,26.81
2018-08-22T17:36:14.986Z,26.44
2018-08-22T17:38:53.645Z,26.33
2018-08-22T17:41:30.975Z,26.35
2018-08-22T17:44:07.432Z,26.31
2018-08-22T17:46:50.370Z,26.31
2018-08-22T17:49:22.414Z,26.31
2018-08-22T17:52:16.021Z,26.25
2018-08-22T17:54:50.115Z,26.23
2018-08-22T17:57:28.262Z,26.20
2018-08-22T17:59:59.618Z,26.16
2018-08-22T18:02:35.682Z,25.80
2018-08-22T18:05:07.657Z,25.75
2018-08-22T18:07:38.192Z,25.52
2018-08-22T18:10:13.333Z,25.44
2018-08-22T18:12:49.512Z,25.49
2018-08-22T18:15:20.510Z,25.32
2018-08-22T18:17:54.694Z,25.33
2018-08-22T18:20:30.971Z,25.25
2018-08-22T18:23:05.780Z,25.27
2018-08-22T18:25:37.457Z,25.16
2018-08-22T18:28:11.784Z,25.24
2018-08-22T18:30:43.371Z,25.20
2018-08-22T18:35:51.496Z,25.05
2018-08-22T18:38:23.502Z,25.05
2018-08-22T18:41:07.191Z,25.09
2018-08-22T18:43:37.546Z,25.02
2018-08-22T18:46:08.860Z,25.06
2018-08-22T18:48:43.073Z,24.76
2018-08-22T18:51:12.423Z,24.53
2018-08-22T18:53:42.874Z,24.40
2018-08-22T18:56:16.675Z,24.41
2018-08-22T18:58:54.720Z,24.37
2018-08-22T19:01:26.813Z,24.19
2018-08-22T19:03:59.582Z,24.21
2018-08-22T19:06:31.430Z,23.97
2018-08-22T19:09:02.135Z,23.95
2018-08-22T19:11:35.437Z,24.15
2018-08-22T19:14:08.443Z,24.22
2018-08-22T19:16:40.927Z,24.32
2018-08-22T19:19:14.378Z,24.24
2018-08-22T19:21:49.987Z,24.17
2018-08-22T19:24:26.619Z,24.51
2018-08-22T19:27:01.306Z,24.49
2018-08-22T19:29:37.921Z,24.43
2018-08-22T19:32:12.990Z,24.57
2018-08-22T19:34:46.280Z,24.00
2018-08-22T19:37:21.016Z,24.56
2018-08-22T19:40:04.800Z,24.61
2018-08-22T19:42:42.748Z,24.32
2018-08-22T19:45:17.976Z,24.58
2018-08-22T19:47:49.093Z,24.71
2018-08-22T19:50:20.410Z,24.63
2018-08-22T19:52:59.250Z,24.58
2018-08-22T19:55:34.922Z,24.71
2018-08-22T19:58:08.650Z,24.77
2018-08-22T20:00:43.065Z,24.63
2018-08-22T20:03:24.941Z,24.67
2018-08-22T20:05:56.348Z,24.54
2018-08-22T20:08:34.939Z,24.27
2018-08-22T20:11:07.816Z,24.32
2018-08-22T20:13:51.659Z,24.20
2018-08-22T20:16:29.864Z,24.54
2018-08-22T20:19:04.313Z,24.53
2018-08-22T20:21:40.856Z,24.62
2018-08-22T20:24:17.467Z,24.52
2018-08-22T20:26:54.617Z,24.24
2018-08-22T20:29:24.788Z,24.05
2018-08-22T20:32:02.829Z,23.91
2018-08-22T20:34:36.168Z,23.97
2018-08-22T20:37:08.732Z,24.11
2018-08-22T20:39:42.160Z,24.47
2018-08-22T20:42:20.327Z,24.34
2018-08-22T20:44:58.017Z,24.49
2018-08-22T20:47:32.888Z,24.56
2018-08-22T20:50:06.385Z,24.27
2018-08-22T20:55:14.867Z,24.15
2018-08-22T20:57:46.145Z,24.12
2018-08-22T21:00:27.099Z,24.20
2018-08-22T21:03:01.338Z,24.06
2018-08-22T21:05:31.555Z,24.13
2018-08-22T21:08:03.747Z,24.19
2018-08-22T21:10:36.513Z,24.41
2018-08-22T21:13:17.592Z,24.67
2018-08-22T21:15:52.084Z,24.74
2018-08-22T21:18:25.785Z,24.67
2018-08-22T21:20:57.531Z,24.57
2018-08-22T21:23:28.272Z,24.40
2018-08-22T21:26:00.626Z,24.45
2018-08-22T21:28:39.377Z,24.43
2018-08-22T21:31:09.576Z,24.38
2018-08-22T21:33:45.632Z,24.26
2018-08-22T21:36:18.718Z,24.36
2018-08-22T21:38:54.614Z,24.43
2018-08-22T21:41:27.855Z,24.63
2018-08-22T21:44:01.216Z,24.59
2018-08-22T21:46:32.295Z,24.92
2018-08-22T21:49:11.108Z,25.27
2018-08-22T21:51:44.323Z,24.78
2018-08-22T21:54:18.690Z,24.19
2018-08-22T21:56:52.224Z,24.53
2018-08-22T21:59:24.356Z,24.57
2018-08-22T22:02:04.295Z,24.23
2018-08-22T22:04:36.686Z,23.94
2018-08-22T22:07:12.814Z,23.86
2018-08-22T22:09:45.058Z,24.12
2018-08-22T22:12:21.376Z,24.15
2018-08-22T22:14:55.111Z,24.32
2018-08-22T22:17:34.188Z,24.76
2018-08-22T22:20:13.577Z,25.28
2018-08-22T22:22:45.495Z,25.68
2018-08-22T22:25:20.555Z,26.12
2018-08-22T22:27:53.209Z,26.20
2018-08-22T22:30:26.893Z,25.99
2018-08-22T22:33:04.002Z,25.80
2018-08-22T22:35:42.343Z,26.03
2018-08-22T22:38:13.226Z,25.42
2018-08-22T22:40:43.974Z,24.71
2018-08-22T22:43:17.002Z,24.33
2018-08-22T22:45:49.463Z,24.12
2018-08-22T22:48:32.694Z,24.37
2018-08-22T22:51:08.200Z,24.82
2018-08-22T22:53:39.305Z,25.00
2018-08-22T22:56:12.425Z,24.92
2018-08-22T22:58:48.453Z,25.13
2018-08-22T23:01:20.060Z,25.11
2018-08-22T23:03:54.849Z,25.35
2018-08-22T23:06:34.578Z,25.57
2018-08-22T23:09:10.803Z,25.69
2018-08-22T23:11:51.502Z,25.68
2018-08-22T23:14:26.709Z,25.65
2018-08-22T23:17:00.960Z,25.70
2018-08-22T23:19:34.827Z,25.77
2018-08-22T23:22:10.356Z,25.83
2018-08-22T23:24:43.533Z,26.02
2018-08-22T23:27:16.118Z,26.22
2018-08-22T23:29:46.514Z,26.28
2018-08-22T23:32:18.655Z,25.98
2018-08-22T23:34:53.702Z,25.92
2018-08-22T23:37:29.553Z,25.96
2018-08-22T23:40:05.425Z,26.02
2018-08-22T23:42:39.276Z,25.79
2018-08-22T23:45:11.888Z,25.68
2018-08-22T23:54:31.475Z,25.80
2018-08-22T23:57:09.550Z,26.27
2018-08-22T23:59:44.128Z,26.47
